sensor_id;sensor_type;location;lat;lon;timestamp;P1;durP1;ratioP1;P2;durP2;ratioP2
58302;SDS011;44109;52.398;7.024;2024-01-10T00:01:27;9.02;;;5.43;;
58302;SDS011;44109;52.398;7.024;2024-01-10T00:03:55;10.10;;;4.25;;
58302;SDS011;44109;52.398;7.024;2024-01-10T00:06:22;6.97;;;4.70;;
58302;SDS011;44109;52.398;7.024;2024-01-10T00:08:51;7.72;;;4.55;;
58302;SDS011;44109;52.398;7.024;2024-01-10T00:11:19;6.40;;;4.07;;
58302;SDS011;44109;52.398;7.024;2024-01-10T00:13:47;7.30;;;4.57;;
58302;SDS011;44109;52.398;7.024;2024-01-10T00:16:15;9.73;;;5.05;;
58302;SDS011;44109;52.398;7.024;2024-01-10T00:18:42;9.00;;;5.07;;
58302;SDS011;44109;52.398;7.024;2024-01-10T00:21:10;8.38;;;4.43;;
58302;SDS011;44109;52.398;7.024;2024-01-10T00:23:38;9.50;;;4.60;;
58302;SDS011;44109;52.398;7.024;2024-01-10T00:26:07;8.85;;;4.65;;
58302;SDS011;44109;52.398;7.024;2024-01-10T00:28:35;6.93;;;4.57;;
58302;SDS011;44109;52.398;7.024;2024-01-10T00:31:03;8.25;;;4.82;;
58302;SDS011;44109;52.398;7.024;2024-01-10T00:33:31;6.82;;;4.00;;
58302;SDS011;44109;52.398;7.024;2024-01-10T00:35:58;6.90;;;4.25;;
58302;SDS011;44109;52.398;7.024;2024-01-10T00:38:26;7.30;;;4.05;;
58302;SDS011;44109;52.398;7.024;2024-01-10T00:40:54;7.57;;;4.00;;
58302;SDS011;44109;52.398;7.024;2024-01-10T00:43:23;8.77;;;4.75;;
58302;SDS011;44109;52.398;7.024;2024-01-10T00:45:51;8.73;;;4.90;;
58302;SDS011;44109;52.398;7.024;2024-01-10T00:48:18;8.63;;;4.60;;
58302;SDS011;44109;52.398;7.024;2024-01-10T00:50:46;9.52;;;5.25;;
58302;SDS011;44109;52.398;7.024;2024-01-10T00:53:13;8.48;;;4.85;;
58302;SDS011;44109;52.398;7.024;2024-01-10T00:55:41;8.35;;;4.95;;
58302;SDS011;44109;52.398;7.024;2024-01-10T00:58:09;9.07;;;4.53;;
58302;SDS011;44109;52.398;7.024;2024-01-10T01:00:37;9.10;;;5.15;;
58302;SDS011;44109;52.398;7.024;2024-01-10T01:03:05;8.85;;;4.82;;
58302;SDS011;44109;52.398;7.024;2024-01-10T01:08:01;7.40;;;4.13;;
58302;SDS011;44109;52.398;7.024;2024-01-10T01:10:29;7.07;;;4.50;;
58302;SDS011;44109;52.398;7.024;2024-01-10T01:12:57;7.25;;;4.47;;
58302;SDS011;44109;52.398;7.024;2024-01-10T01:15:25;8.35;;;4.78;;
58302;SDS011;44109;52.398;7.024;2024-01-10T01:17:53;8.65;;;4.47;;
58302;SDS011;44109;52.398;7.024;2024-01-10T01:20:21;8.20;;;4.47;;
58302;SDS011;44109;52.398;7.024;2024-01-10T01:22:49;6.97;;;4.68;;
58302;SDS011;44109;52.398;7.024;2024-01-10T01:25:16;7.28;;;4.35;;
58302;SDS011;44109;52.398;7.024;2024-01-10T01:27:44;7.10;;;4.18;;
58302;SDS011;44109;52.398;7.024;2024-01-10T01:30:11;8.23;;;4.97;;
58302;SDS011;44109;52.398;7.024;2024-01-10T01:32:39;9.10;;;4.50;;
58302;SDS011;44109;52.398;7.024;2024-01-10T01:35:08;7.90;;;4.38;;
58302;SDS011;44109;52.398;7.024;2024-01-10T01:37:36;7.70;;;4.40;;
58302;SDS011;44109;52.398;7.024;2024-01-10T01:40:05;6.53;;;4.05;;
58302;SDS011;44109;52.398;7.024;2024-01-10T01:42:34;8.43;;;4.70;;
58302;SDS011;44109;52.398;7.024;2024-01-10T01:45:02;6.85;;;4.55;;
58302;SDS011;44109;52.398;7.024;2024-01-10T01:47:30;8.63;;;5.00;;
58302;SDS011;44109;52.398;7.024;2024-01-10T01:49:58;8.77;;;4.88;;
58302;SDS011;44109;52.398;7.024;2024-01-10T01:52:27;9.43;;;5.03;;
58302;SDS011;44109;52.398;7.024;2024-01-10T01:54:57;8.95;;;5.35;;
58302;SDS011;44109;52.398;7.024;2024-01-10T01:57:25;8.60;;;5.10;;
58302;SDS011;44109;52.398;7.024;2024-01-10T01:59:52;8.63;;;4.45;;
58302;SDS011;44109;52.398;7.024;2024-01-10T02:02:20;8.05;;;4.82;;
58302;SDS011;44109;52.398;7.024;2024-01-10T02:04:50;9.80;;;5.75;;
58302;SDS011;44109;52.398;7.024;2024-01-10T02:07:18;9.80;;;5.53;;
58302;SDS011;44109;52.398;7.024;2024-01-10T02:09:47;9.32;;;5.05;;
58302;SDS011;44109;52.398;7.024;2024-01-10T02:12:15;9.55;;;5.22;;
58302;SDS011;44109;52.398;7.024;2024-01-10T02:14:42;7.80;;;5.40;;
58302;SDS011;44109;52.398;7.024;2024-01-10T02:17:10;9.13;;;5.50;;
58302;SDS011;44109;52.398;7.024;2024-01-10T02:19:37;8.63;;;5.18;;
58302;SDS011;44109;52.398;7.024;2024-01-10T02:22:05;10.30;;;5.85;;
58302;SDS011;44109;52.398;7.024;2024-01-10T02:24:33;10.40;;;5.43;;
58302;SDS011;44109;52.398;7.024;2024-01-10T02:27:02;11.40;;;5.60;;
58302;SDS011;44109;52.398;7.024;2024-01-10T02:29:30;8.68;;;5.50;;
58302;SDS011;44109;52.398;7.024;2024-01-10T02:31:58;8.40;;;5.03;;
58302;SDS011;44109;52.398;7.024;2024-01-10T02:34:25;8.43;;;5.72;;
58302;SDS011;44109;52.398;7.024;2024-01-10T02:36:53;7.80;;;4.85;;
58302;SDS011;44109;52.398;7.024;2024-01-10T02:39:20;10.40;;;6.00;;
58302;SDS011;44109;52.398;7.024;2024-01-10T02:41:48;9.50;;;5.70;;
58302;SDS011;44109;52.398;7.024;2024-01-10T02:44:17;10.02;;;5.55;;
58302;SDS011;44109;52.398;7.024;2024-01-10T02:46:45;7.57;;;5.43;;
58302;SDS011;44109;52.398;7.024;2024-01-10T02:49:13;11.98;;;6.15;;
58302;SDS011;44109;52.398;7.024;2024-01-10T02:51:40;7.93;;;5.22;;
58302;SDS011;44109;52.398;7.024;2024-01-10T02:54:08;8.43;;;6.10;;
58302;SDS011;44109;52.398;7.024;2024-01-10T02:56:35;9.50;;;6.05;;
58302;SDS011;44109;52.398;7.024;2024-01-10T02:59:03;11.23;;;6.22;;
58302;SDS011;44109;52.398;7.024;2024-01-10T03:01:32;13.00;;;7.28;;
58302;SDS011;44109;52.398;7.024;2024-01-10T03:03:59;11.45;;;6.15;;
58302;SDS011;44109;52.398;7.024;2024-01-10T03:06:27;10.82;;;6.18;;
58302;SDS011;44109;52.398;7.024;2024-01-10T03:08:54;10.45;;;5.88;;
58302;SDS011;44109;52.398;7.024;2024-01-10T03:11:22;10.15;;;6.03;;
58302;SDS011;44109;52.398;7.024;2024-01-10T03:13:53;10.07;;;5.95;;
58302;SDS011;44109;52.398;7.024;2024-01-10T03:16:29;8.25;;;5.57;;
58302;SDS011;44109;52.398;7.024;2024-01-10T03:18:58;10.93;;;6.60;;
58302;SDS011;44109;52.398;7.024;2024-01-10T03:21:27;9.75;;;5.97;;
58302;SDS011;44109;52.398;7.024;2024-01-10T03:23:54;11.40;;;6.43;;
58302;SDS011;44109;52.398;7.024;2024-01-10T03:26:23;10.95;;;6.78;;
58302;SDS011;44109;52.398;7.024;2024-01-10T03:28:51;11.48;;;6.40;;
58302;SDS011;44109;52.398;7.024;2024-01-10T03:31:19;12.38;;;7.10;;
58302;SDS011;44109;52.398;7.024;2024-01-10T03:33:48;12.15;;;6.50;;
58302;SDS011;44109;52.398;7.024;2024-01-10T03:36:16;10.20;;;6.80;;
58302;SDS011;44109;52.398;7.024;2024-01-10T03:38:45;12.52;;;6.90;;
58302;SDS011;44109;52.398;7.024;2024-01-10T03:41:13;14.02;;;7.18;;
58302;SDS011;44109;52.398;7.024;2024-01-10T03:43:40;11.02;;;6.65;;
58302;SDS011;44109;52.398;7.024;2024-01-10T03:46:10;9.98;;;6.03;;
58302;SDS011;44109;52.398;7.024;2024-01-10T03:48:37;13.10;;;7.07;;
58302;SDS011;44109;52.398;7.024;2024-01-10T03:51:14;11.25;;;6.80;;
58302;SDS011;44109;52.398;7.024;2024-01-10T03:53:43;11.77;;;7.07;;
58302;SDS011;44109;52.398;7.024;2024-01-10T03:56:11;11.77;;;7.63;;
58302;SDS011;44109;52.398;7.024;2024-01-10T03:58:39;10.02;;;6.78;;
58302;SDS011;44109;52.398;7.024;2024-01-10T04:01:07;13.32;;;7.30;;
58302;SDS011;44109;52.398;7.024;2024-01-10T04:03:35;11.80;;;6.88;;
58302;SDS011;44109;52.398;7.024;2024-01-10T04:06:04;13.75;;;6.55;;
58302;SDS011;44109;52.398;7.024;2024-01-10T04:08:33;11.00;;;6.53;;
58302;SDS011;44109;52.398;7.024;2024-01-10T04:11:01;11.52;;;6.53;;
58302;SDS011;44109;52.398;7.024;2024-01-10T04:13:29;12.80;;;6.78;;
58302;SDS011;44109;52.398;7.024;2024-01-10T04:15:57;12.27;;;7.05;;
58302;SDS011;44109;52.398;7.024;2024-01-10T04:18:24;11.88;;;7.10;;
58302;SDS011;44109;52.398;7.024;2024-01-10T04:20:52;15.00;;;7.47;;
58302;SDS011;44109;52.398;7.024;2024-01-10T04:23:19;9.43;;;6.35;;
58302;SDS011;44109;52.398;7.024;2024-01-10T04:25:48;12.57;;;7.35;;
58302;SDS011;44109;52.398;7.024;2024-01-10T04:28:16;15.20;;;7.63;;
58302;SDS011;44109;52.398;7.024;2024-01-10T04:30:44;13.95;;;8.07;;
58302;SDS011;44109;52.398;7.024;2024-01-10T04:33:11;15.65;;;8.05;;
58302;SDS011;44109;52.398;7.024;2024-01-10T04:35:39;13.32;;;7.70;;
58302;SDS011;44109;52.398;7.024;2024-01-10T04:38:08;12.73;;;7.30;;
58302;SDS011;44109;52.398;7.024;2024-01-10T04:40:36;10.57;;;7.50;;
58302;SDS011;44109;52.398;7.024;2024-01-10T04:43:05;13.30;;;8.32;;
58302;SDS011;44109;52.398;7.024;2024-01-10T04:45:32;16.63;;;8.48;;
58302;SDS011;44109;52.398;7.024;2024-01-10T04:48:00;13.00;;;7.35;;
58302;SDS011;44109;52.398;7.024;2024-01-10T04:50:28;13.77;;;8.15;;
58302;SDS011;44109;52.398;7.024;2024-01-10T04:52:55;16.17;;;7.60;;
58302;SDS011;44109;52.398;7.024;2024-01-10T04:55:23;14.85;;;7.28;;
58302;SDS011;44109;52.398;7.024;2024-01-10T04:57:50;13.25;;;7.63;;
58302;SDS011;44109;52.398;7.024;2024-01-10T05:00:19;15.27;;;8.30;;
58302;SDS011;44109;52.398;7.024;2024-01-10T05:02:47;12.63;;;7.95;;
58302;SDS011;44109;52.398;7.024;2024-01-10T05:05:14;13.88;;;8.80;;
58302;SDS011;44109;52.398;7.024;2024-01-10T05:07:44;13.55;;;8.27;;
58302;SDS011;44109;52.398;7.024;2024-01-10T05:10:11;16.02;;;8.73;;
58302;SDS011;44109;52.398;7.024;2024-01-10T05:12:39;14.27;;;8.52;;
58302;SDS011;44109;52.398;7.024;2024-01-10T05:15:07;17.40;;;8.05;;
58302;SDS011;44109;52.398;7.024;2024-01-10T05:17:37;12.35;;;7.72;;
58302;SDS011;44109;52.398;7.024;2024-01-10T05:20:05;14.23;;;8.48;;
58302;SDS011;44109;52.398;7.024;2024-01-10T05:22:34;14.55;;;8.48;;
58302;SDS011;44109;52.398;7.024;2024-01-10T05:25:02;16.85;;;8.52;;
58302;SDS011;44109;52.398;7.024;2024-01-10T05:27:31;13.05;;;7.97;;
58302;SDS011;44109;52.398;7.024;2024-01-10T05:29:59;13.95;;;8.55;;
58302;SDS011;44109;52.398;7.024;2024-01-10T05:32:26;13.57;;;8.57;;
58302;SDS011;44109;52.398;7.024;2024-01-10T05:34:55;20.10;;;8.95;;
58302;SDS011;44109;52.398;7.024;2024-01-10T05:37:23;14.63;;;7.97;;
58302;SDS011;44109;52.398;7.024;2024-01-10T05:39:51;16.33;;;8.52;;
58302;SDS011;44109;52.398;7.024;2024-01-10T05:42:18;13.13;;;8.18;;
58302;SDS011;44109;52.398;7.024;2024-01-10T05:44:46;14.73;;;9.13;;
58302;SDS011;44109;52.398;7.024;2024-01-10T05:47:14;15.27;;;7.90;;
58302;SDS011;44109;52.398;7.024;2024-01-10T05:49:42;14.68;;;8.50;;
58302;SDS011;44109;52.398;7.024;2024-01-10T05:52:11;14.98;;;8.63;;
58302;SDS011;44109;52.398;7.024;2024-01-10T05:54:38;13.45;;;8.18;;
58302;SDS011;44109;52.398;7.024;2024-01-10T05:57:06;14.63;;;9.05;;
58302;SDS011;44109;52.398;7.024;2024-01-10T05:59:34;13.65;;;8.30;;
58302;SDS011;44109;52.398;7.024;2024-01-10T06:02:01;14.27;;;8.57;;
58302;SDS011;44109;52.398;7.024;2024-01-10T06:04:30;11.85;;;8.18;;
58302;SDS011;44109;52.398;7.024;2024-01-10T06:06:58;14.13;;;8.05;;
58302;SDS011;44109;52.398;7.024;2024-01-10T06:09:27;15.65;;;8.68;;
58302;SDS011;44109;52.398;7.024;2024-01-10T06:11:55;13.73;;;8.40;;
58302;SDS011;44109;52.398;7.024;2024-01-10T06:14:23;14.35;;;8.63;;
58302;SDS011;44109;52.398;7.024;2024-01-10T06:16:50;13.07;;;8.05;;
58302;SDS011;44109;52.398;7.024;2024-01-10T06:19:18;16.48;;;8.48;;
58302;SDS011;44109;52.398;7.024;2024-01-10T06:21:45;13.13;;;7.97;;
58302;SDS011;44109;52.398;7.024;2024-01-10T06:24:13;14.13;;;8.57;;
58302;SDS011;44109;52.398;7.024;2024-01-10T06:26:42;14.90;;;8.25;;
58302;SDS011;44109;52.398;7.024;2024-01-10T06:29:09;15.20;;;9.35;;
58302;SDS011;44109;52.398;7.024;2024-01-10T06:31:37;17.80;;;13.25;;
58302;SDS011;44109;52.398;7.024;2024-01-10T06:34:04;19.08;;;11.40;;
58302;SDS011;44109;52.398;7.024;2024-01-10T06:36:32;17.38;;;11.85;;
58302;SDS011;44109;52.398;7.024;2024-01-10T06:38:59;18.27;;;11.82;;
58302;SDS011;44109;52.398;7.024;2024-01-10T06:41:27;15.45;;;10.52;;
58302;SDS011;44109;52.398;7.024;2024-01-10T06:43:56;17.13;;;10.98;;
58302;SDS011;44109;52.398;7.024;2024-01-10T06:46:24;14.15;;;9.65;;
58302;SDS011;44109;52.398;7.024;2024-01-10T06:48:52;18.30;;;9.85;;
58302;SDS011;44109;52.398;7.024;2024-01-10T06:51:19;16.58;;;9.52;;
58302;SDS011;44109;52.398;7.024;2024-01-10T06:53:47;15.80;;;9.80;;
58302;SDS011;44109;52.398;7.024;2024-01-10T06:56:14;17.98;;;9.70;;
58302;SDS011;44109;52.398;7.024;2024-01-10T06:58:42;16.95;;;9.75;;
58302;SDS011;44109;52.398;7.024;2024-01-10T07:01:14;18.95;;;10.10;;
58302;SDS011;44109;52.398;7.024;2024-01-10T07:03:42;16.65;;;10.02;;
58302;SDS011;44109;52.398;7.024;2024-01-10T07:06:11;15.23;;;9.43;;
58302;SDS011;44109;52.398;7.024;2024-01-10T07:08:40;15.65;;;8.93;;
58302;SDS011;44109;52.398;7.024;2024-01-10T07:11:08;16.63;;;9.00;;
58302;SDS011;44109;52.398;7.024;2024-01-10T07:13:37;15.60;;;9.45;;
58302;SDS011;44109;52.398;7.024;2024-01-10T07:16:05;17.52;;;11.43;;
58302;SDS011;44109;52.398;7.024;2024-01-10T07:18:34;14.45;;;8.82;;
58302;SDS011;44109;52.398;7.024;2024-01-10T07:21:02;18.33;;;10.57;;
58302;SDS011;44109;52.398;7.024;2024-01-10T07:23:31;17.10;;;10.77;;
58302;SDS011;44109;52.398;7.024;2024-01-10T07:25:59;21.30;;;12.00;;
58302;SDS011;44109;52.398;7.024;2024-01-10T07:28:27;21.10;;;11.80;;
58302;SDS011;44109;52.398;7.024;2024-01-10T07:30:54;19.60;;;11.65;;
58302;SDS011;44109;52.398;7.024;2024-01-10T07:33:22;22.60;;;12.35;;
58302;SDS011;44109;52.398;7.024;2024-01-10T07:35:51;21.92;;;12.50;;
58302;SDS011;44109;52.398;7.024;2024-01-10T07:38:20;20.38;;;11.65;;
58302;SDS011;44109;52.398;7.024;2024-01-10T07:40:48;20.75;;;11.25;;
58302;SDS011;44109;52.398;7.024;2024-01-10T07:43:16;19.05;;;11.52;;
58302;SDS011;44109;52.398;7.024;2024-01-10T07:45:44;19.65;;;11.13;;
58302;SDS011;44109;52.398;7.024;2024-01-10T07:48:11;20.35;;;11.65;;
58302;SDS011;44109;52.398;7.024;2024-01-10T07:50:39;17.05;;;9.43;;
58302;SDS011;44109;52.398;7.024;2024-01-10T07:53:08;18.77;;;11.23;;
58302;SDS011;44109;52.398;7.024;2024-01-10T07:55:35;17.45;;;10.25;;
58302;SDS011;44109;52.398;7.024;2024-01-10T07:58:04;18.50;;;9.98;;
58302;SDS011;44109;52.398;7.024;2024-01-10T08:00:33;18.08;;;11.32;;
58302;SDS011;44109;52.398;7.024;2024-01-10T08:03:01;16.83;;;10.15;;
58302;SDS011;44109;52.398;7.024;2024-01-10T08:05:28;16.65;;;10.10;;
58302;SDS011;44109;52.398;7.024;2024-01-10T08:07:56;15.10;;;9.23;;
58302;SDS011;44109;52.398;7.024;2024-01-10T08:10:25;15.20;;;9.05;;
58302;SDS011;44109;52.398;7.024;2024-01-10T08:12:54;18.17;;;9.77;;
58302;SDS011;44109;52.398;7.024;2024-01-10T08:15:22;21.10;;;10.15;;
58302;SDS011;44109;52.398;7.024;2024-01-10T08:17:50;18.23;;;10.98;;
58302;SDS011;44109;52.398;7.024;2024-01-10T08:20:18;23.83;;;10.40;;
58302;SDS011;44109;52.398;7.024;2024-01-10T08:22:46;17.17;;;10.52;;
58302;SDS011;44109;52.398;7.024;2024-01-10T08:25:14;15.68;;;9.60;;
58302;SDS011;44109;52.398;7.024;2024-01-10T08:27:45;13.82;;;9.18;;
58302;SDS011;44109;52.398;7.024;2024-01-10T08:30:14;19.45;;;9.55;;
58302;SDS011;44109;52.398;7.024;2024-01-10T08:32:43;18.30;;;10.30;;
58302;SDS011;44109;52.398;7.024;2024-01-10T08:35:10;16.85;;;10.00;;
58302;SDS011;44109;52.398;7.024;2024-01-10T08:37:38;18.05;;;9.77;;
58302;SDS011;44109;52.398;7.024;2024-01-10T08:40:08;21.35;;;12.40;;
58302;SDS011;44109;52.398;7.024;2024-01-10T08:42:38;16.27;;;10.27;;
58302;SDS011;44109;52.398;7.024;2024-01-10T08:45:07;17.83;;;10.73;;
58302;SDS011;44109;52.398;7.024;2024-01-10T08:47:37;20.48;;;10.88;;
58302;SDS011;44109;52.398;7.024;2024-01-10T08:50:05;20.58;;;11.30;;
58302;SDS011;44109;52.398;7.024;2024-01-10T08:52:35;22.13;;;13.43;;
58302;SDS011;44109;52.398;7.024;2024-01-10T08:55:04;20.20;;;11.52;;
58302;SDS011;44109;52.398;7.024;2024-01-10T08:57:32;23.25;;;13.02;;
58302;SDS011;44109;52.398;7.024;2024-01-10T09:00:00;20.50;;;13.00;;
58302;SDS011;44109;52.398;7.024;2024-01-10T09:02:33;20.02;;;12.13;;
58302;SDS011;44109;52.398;7.024;2024-01-10T09:05:02;18.20;;;10.93;;
58302;SDS011;44109;52.398;7.024;2024-01-10T09:07:33;18.48;;;10.10;;
58302;SDS011;44109;52.398;7.024;2024-01-10T09:10:00;14.45;;;9.07;;
58302;SDS011;44109;52.398;7.024;2024-01-10T09:12:28;17.25;;;9.52;;
58302;SDS011;44109;52.398;7.024;2024-01-10T09:14:56;17.20;;;9.23;;
58302;SDS011;44109;52.398;7.024;2024-01-10T09:17:22;17.77;;;9.43;;
58302;SDS011;44109;52.398;7.024;2024-01-10T09:19:55;19.67;;;10.52;;
58302;SDS011;44109;52.398;7.024;2024-01-10T09:22:23;17.20;;;10.10;;
58302;SDS011;44109;52.398;7.024;2024-01-10T09:24:51;13.32;;;8.52;;
58302;SDS011;44109;52.398;7.024;2024-01-10T09:27:19;14.13;;;8.68;;
58302;SDS011;44109;52.398;7.024;2024-01-10T09:29:48;18.65;;;8.20;;
58302;SDS011;44109;52.398;7.024;2024-01-10T09:32:16;16.00;;;9.57;;
58302;SDS011;44109;52.398;7.024;2024-01-10T09:34:44;15.63;;;8.25;;
58302;SDS011;44109;52.398;7.024;2024-01-10T09:37:13;15.65;;;8.07;;
58302;SDS011;44109;52.398;7.024;2024-01-10T09:39:41;14.50;;;9.25;;
58302;SDS011;44109;52.398;7.024;2024-01-10T09:42:08;19.55;;;9.75;;
58302;SDS011;44109;52.398;7.024;2024-01-10T09:44:36;15.65;;;9.98;;
58302;SDS011;44109;52.398;7.024;2024-01-10T09:47:04;16.30;;;8.45;;
58302;SDS011;44109;52.398;7.024;2024-01-10T09:49:32;18.23;;;10.50;;
58302;SDS011;44109;52.398;7.024;2024-01-10T09:51:59;13.88;;;8.82;;
58302;SDS011;44109;52.398;7.024;2024-01-10T09:54:38;16.30;;;10.10;;
58302;SDS011;44109;52.398;7.024;2024-01-10T09:57:08;18.00;;;10.30;;
58302;SDS011;44109;52.398;7.024;2024-01-10T09:59:36;16.10;;;10.32;;
58302;SDS011;44109;52.398;7.024;2024-01-10T10:02:04;15.95;;;10.48;;
58302;SDS011;44109;52.398;7.024;2024-01-10T10:04:31;19.10;;;10.68;;
58302;SDS011;44109;52.398;7.024;2024-01-10T10:06:59;17.60;;;10.77;;
58302;SDS011;44109;52.398;7.024;2024-01-10T10:09:28;18.55;;;11.65;;
58302;SDS011;44109;52.398;7.024;2024-01-10T10:11:58;20.15;;;12.88;;
58302;SDS011;44109;52.398;7.024;2024-01-10T10:14:28;18.80;;;10.43;;
58302;SDS011;44109;52.398;7.024;2024-01-10T10:16:57;23.30;;;9.93;;
58302;SDS011;44109;52.398;7.024;2024-01-10T10:19:42;20.85;;;11.85;;
58302;SDS011;44109;52.398;7.024;2024-01-10T10:22:10;18.55;;;10.27;;
58302;SDS011;44109;52.398;7.024;2024-01-10T10:24:39;16.33;;;9.98;;
58302;SDS011;44109;52.398;7.024;2024-01-10T10:27:12;17.42;;;10.38;;
58302;SDS011;44109;52.398;7.024;2024-01-10T10:29:40;16.30;;;9.98;;
58302;SDS011;44109;52.398;7.024;2024-01-10T10:32:09;14.70;;;10.40;;
58302;SDS011;44109;52.398;7.024;2024-01-10T10:34:36;14.98;;;9.32;;
58302;SDS011;44109;52.398;7.024;2024-01-10T10:37:04;15.48;;;8.95;;
58302;SDS011;44109;52.398;7.024;2024-01-10T10:39:31;16.65;;;9.05;;
58302;SDS011;44109;52.398;7.024;2024-01-10T10:41:59;15.20;;;8.85;;
58302;SDS011;44109;52.398;7.024;2024-01-10T10:44:30;13.77;;;9.05;;
58302;SDS011;44109;52.398;7.024;2024-01-10T10:47:08;14.85;;;8.45;;
58302;SDS011;44109;52.398;7.024;2024-01-10T10:49:40;14.48;;;8.77;;
58302;SDS011;44109;52.398;7.024;2024-01-10T10:52:18;12.73;;;7.65;;
58302;SDS011;44109;52.398;7.024;2024-01-10T10:54:47;12.52;;;7.32;;
58302;SDS011;44109;52.398;7.024;2024-01-10T10:57:16;15.13;;;8.05;;
58302;SDS011;44109;52.398;7.024;2024-01-10T10:59:47;20.33;;;9.20;;
58302;SDS011;44109;52.398;7.024;2024-01-10T11:02:19;13.35;;;8.48;;
58302;SDS011;44109;52.398;7.024;2024-01-10T11:04:49;10.85;;;6.82;;
58302;SDS011;44109;52.398;7.024;2024-01-10T11:07:17;13.45;;;7.47;;
58302;SDS011;44109;52.398;7.024;2024-01-10T11:09:46;18.40;;;8.75;;
58302;SDS011;44109;52.398;7.024;2024-01-10T11:12:21;11.57;;;7.53;;
58302;SDS011;44109;52.398;7.024;2024-01-10T11:15:15;14.40;;;8.95;;
58302;SDS011;44109;52.398;7.024;2024-01-10T11:18:08;17.33;;;9.60;;
58302;SDS011;44109;52.398;7.024;2024-01-10T11:20:59;13.55;;;8.70;;
58302;SDS011;44109;52.398;7.024;2024-01-10T11:23:47;13.77;;;8.85;;
58302;SDS011;44109;52.398;7.024;2024-01-10T11:26:19;14.25;;;8.88;;
58302;SDS011;44109;52.398;7.024;2024-01-10T11:28:47;14.73;;;8.88;;
58302;SDS011;44109;52.398;7.024;2024-01-10T11:31:26;14.13;;;8.45;;
58302;SDS011;44109;52.398;7.024;2024-01-10T11:33:57;17.63;;;8.90;;
58302;SDS011;44109;52.398;7.024;2024-01-10T11:36:28;11.02;;;6.45;;
58302;SDS011;44109;52.398;7.024;2024-01-10T11:38:57;14.85;;;8.50;;
58302;SDS011;44109;52.398;7.024;2024-01-10T11:41:28;17.73;;;10.30;;
58302;SDS011;44109;52.398;7.024;2024-01-10T11:46:58;17.13;;;9.07;;
58302;SDS011;44109;52.398;7.024;2024-01-10T11:49:26;19.45;;;10.23;;
58302;SDS011;44109;52.398;7.024;2024-01-10T11:51:55;15.13;;;9.18;;
58302;SDS011;44109;52.398;7.024;2024-01-10T11:54:40;16.83;;;9.38;;
58302;SDS011;44109;52.398;7.024;2024-01-10T11:57:13;16.13;;;9.13;;
58302;SDS011;44109;52.398;7.024;2024-01-10T11:59:47;15.32;;;9.32;;
58302;SDS011;44109;52.398;7.024;2024-01-10T12:02:19;16.02;;;9.45;;
58302;SDS011;44109;52.398;7.024;2024-01-10T12:04:49;15.75;;;9.43;;
58302;SDS011;44109;52.398;7.024;2024-01-10T12:07:17;16.45;;;9.98;;
58302;SDS011;44109;52.398;7.024;2024-01-10T12:09:46;16.67;;;9.98;;
58302;SDS011;44109;52.398;7.024;2024-01-10T12:12:14;18.20;;;9.77;;
58302;SDS011;44109;52.398;7.024;2024-01-10T12:14:42;16.70;;;9.85;;
58302;SDS011;44109;52.398;7.024;2024-01-10T12:17:11;14.80;;;10.07;;
58302;SDS011;44109;52.398;7.024;2024-01-10T12:19:40;13.57;;;8.13;;
58302;SDS011;44109;52.398;7.024;2024-01-10T12:25:09;14.32;;;7.25;;
58302;SDS011;44109;52.398;7.024;2024-01-10T12:27:37;15.63;;;8.85;;
58302;SDS011;44109;52.398;7.024;2024-01-10T12:30:05;14.80;;;8.60;;
58302;SDS011;44109;52.398;7.024;2024-01-10T12:32:34;14.48;;;8.77;;
58302;SDS011;44109;52.398;7.024;2024-01-10T12:35:04;14.85;;;9.23;;
58302;SDS011;44109;52.398;7.024;2024-01-10T12:37:33;16.02;;;8.50;;
58302;SDS011;44109;52.398;7.024;2024-01-10T12:40:01;11.52;;;7.25;;
58302;SDS011;44109;52.398;7.024;2024-01-10T12:42:30;14.93;;;8.27;;
58302;SDS011;44109;52.398;7.024;2024-01-10T12:44:58;15.52;;;8.30;;
58302;SDS011;44109;52.398;7.024;2024-01-10T12:47:26;13.95;;;9.32;;
58302;SDS011;44109;52.398;7.024;2024-01-10T12:49:53;15.68;;;8.85;;
58302;SDS011;44109;52.398;7.024;2024-01-10T12:52:22;14.30;;;8.48;;
58302;SDS011;44109;52.398;7.024;2024-01-10T12:54:50;15.95;;;9.20;;
58302;SDS011;44109;52.398;7.024;2024-01-10T12:57:18;16.60;;;8.95;;
58302;SDS011;44109;52.398;7.024;2024-01-10T12:59:46;13.05;;;8.18;;
58302;SDS011;44109;52.398;7.024;2024-01-10T13:02:14;14.15;;;8.77;;
58302;SDS011;44109;52.398;7.024;2024-01-10T13:04:41;13.07;;;8.55;;
58302;SDS011;44109;52.398;7.024;2024-01-10T13:07:09;14.73;;;8.85;;
58302;SDS011;44109;52.398;7.024;2024-01-10T13:09:38;12.38;;;8.10;;
58302;SDS011;44109;52.398;7.024;2024-01-10T13:12:06;17.73;;;9.15;;
58302;SDS011;44109;52.398;7.024;2024-01-10T13:14:35;13.30;;;8.38;;
58302;SDS011;44109;52.398;7.024;2024-01-10T13:17:02;14.25;;;8.93;;
58302;SDS011;44109;52.398;7.024;2024-01-10T13:19:30;15.90;;;8.75;;
58302;SDS011;44109;52.398;7.024;2024-01-10T13:21:58;13.73;;;8.45;;
58302;SDS011;44109;52.398;7.024;2024-01-10T13:24:25;12.65;;;8.45;;
58302;SDS011;44109;52.398;7.024;2024-01-10T13:26:54;14.35;;;7.93;;
58302;SDS011;44109;52.398;7.024;2024-01-10T13:29:22;16.30;;;9.20;;
58302;SDS011;44109;52.398;7.024;2024-01-10T13:31:50;13.65;;;8.52;;
58302;SDS011;44109;52.398;7.024;2024-01-10T13:34:17;12.27;;;8.85;;
58302;SDS011;44109;52.398;7.024;2024-01-10T13:36:45;15.98;;;10.18;;
58302;SDS011;44109;52.398;7.024;2024-01-10T13:39:13;15.40;;;9.65;;
58302;SDS011;44109;52.398;7.024;2024-01-10T13:41:41;13.35;;;8.35;;
58302;SDS011;44109;52.398;7.024;2024-01-10T13:44:10;14.35;;;8.63;;
58302;SDS011;44109;52.398;7.024;2024-01-10T13:46:38;14.52;;;8.27;;
58302;SDS011;44109;52.398;7.024;2024-01-10T13:49:05;14.98;;;9.77;;
58302;SDS011;44109;52.398;7.024;2024-01-10T13:51:33;15.30;;;9.05;;
58302;SDS011;44109;52.398;7.024;2024-01-10T13:54:01;13.63;;;9.38;;
58302;SDS011;44109;52.398;7.024;2024-01-10T13:56:28;12.57;;;8.30;;
58302;SDS011;44109;52.398;7.024;2024-01-10T13:58:57;14.85;;;8.40;;
58302;SDS011;44109;52.398;7.024;2024-01-10T14:01:26;11.70;;;8.50;;
58302;SDS011;44109;52.398;7.024;2024-01-10T14:03:54;13.80;;;9.00;;
58302;SDS011;44109;52.398;7.024;2024-01-10T14:06:22;11.55;;;7.97;;
58302;SDS011;44109;52.398;7.024;2024-01-10T14:08:49;11.90;;;7.93;;
58302;SDS011;44109;52.398;7.024;2024-01-10T14:11:19;12.90;;;7.40;;
58302;SDS011;44109;52.398;7.024;2024-01-10T14:13:47;12.48;;;7.97;;
58302;SDS011;44109;52.398;7.024;2024-01-10T14:16:14;14.20;;;8.20;;
58302;SDS011;44109;52.398;7.024;2024-01-10T14:18:43;10.82;;;7.15;;
58302;SDS011;44109;52.398;7.024;2024-01-10T14:21:13;12.32;;;7.43;;
58302;SDS011;44109;52.398;7.024;2024-01-10T14:23:40;12.85;;;8.40;;
58302;SDS011;44109;52.398;7.024;2024-01-10T14:26:08;11.70;;;8.07;;
58302;SDS011;44109;52.398;7.024;2024-01-10T14:28:36;12.70;;;7.68;;
58302;SDS011;44109;52.398;7.024;2024-01-10T14:31:03;11.13;;;7.40;;
58302;SDS011;44109;52.398;7.024;2024-01-10T14:33:31;15.70;;;8.35;;
58302;SDS011;44109;52.398;7.024;2024-01-10T14:36:00;13.60;;;8.55;;
58302;SDS011;44109;52.398;7.024;2024-01-10T14:38:30;13.68;;;8.48;;
58302;SDS011;44109;52.398;7.024;2024-01-10T14:40:58;13.07;;;7.63;;
58302;SDS011;44109;52.398;7.024;2024-01-10T14:43:26;13.88;;;8.45;;
58302;SDS011;44109;52.398;7.024;2024-01-10T14:45:54;13.55;;;8.43;;
58302;SDS011;44109;52.398;7.024;2024-01-10T14:48:22;13.07;;;8.05;;
58302;SDS011;44109;52.398;7.024;2024-01-10T14:50:49;13.70;;;8.77;;
58302;SDS011;44109;52.398;7.024;2024-01-10T14:53:19;13.00;;;7.72;;